CXA5804 ZJSY-ZJHK
Flight info
| Callsign | CXA5804 |
|---|---|
| Flight time | 0h 27m |
| Altitude | 14800 |
| Route | PORAP1N PORAP PORAP7XA |
| Aircraft | A320/M-SDE3FGHIRWY/LB1 |
Departure
| Time | 2026-04-21 13:13 |
|---|---|
| Airport | Sanya Phoenix International Airport (ZJSY) |
Arrival
| Time | 2026-04-21 13:41 |
|---|---|
| Airport | Haikou Meilan International Airport (ZJHK) |
| Time | Latitude | Longitude | Altitude | Speed | Heading |
|---|---|---|---|---|---|
| 2026-04-21 12:52 | 18.30841 | 109.40890 | 85 ft | 0 kts | 352° |
| 2026-04-21 13:03 | 18.30835 | 109.40891 | 83 ft | 4 kts | 352° |
| 2026-04-21 13:03 | 18.30808 | 109.40895 | 86 ft | 4 kts | 352° |
| 2026-04-21 13:04 | 18.30782 | 109.40899 | 85 ft | 4 kts | 352° |
| 2026-04-21 13:04 | 18.30757 | 109.40905 | 88 ft | 4 kts | 322° |
| 2026-04-21 13:04 | 18.30746 | 109.40926 | 86 ft | 4 kts | 268° |
| 2026-04-21 13:04 | 18.30748 | 109.40949 | 88 ft | 0 kts | 262° |
| 2026-04-21 13:06 | 18.30746 | 109.40926 | 86 ft | 8 kts | 262° |
| 2026-04-21 13:07 | 18.30736 | 109.40852 | 83 ft | 11 kts | 262° |
| 2026-04-21 13:07 | 18.30688 | 109.40792 | 85 ft | 13 kts | 179° |
| 2026-04-21 13:07 | 18.30591 | 109.40805 | 85 ft | 15 kts | 172° |
| 2026-04-21 13:07 | 18.30480 | 109.40820 | 83 ft | 17 kts | 173° |
| 2026-04-21 13:08 | 18.30406 | 109.40775 | 81 ft | 15 kts | 261° |
| 2026-04-21 13:08 | 18.30391 | 109.40657 | 80 ft | 18 kts | 263° |
| 2026-04-21 13:08 | 18.30373 | 109.40521 | 79 ft | 20 kts | 262° |
| 2026-04-21 13:08 | 18.30352 | 109.40367 | 78 ft | 22 kts | 262° |
| 2026-04-21 13:09 | 18.30331 | 109.40197 | 77 ft | 25 kts | 263° |
| 2026-04-21 13:09 | 18.30306 | 109.40010 | 76 ft | 27 kts | 262° |
| 2026-04-21 13:09 | 18.30279 | 109.39808 | 74 ft | 29 kts | 262° |
| 2026-04-21 13:09 | 18.30269 | 109.39720 | 69 ft | 3 kts | 263° |
| 2026-04-21 13:11 | 18.30268 | 109.39711 | 71 ft | 2 kts | 262° |
| 2026-04-21 13:11 | 18.30244 | 109.39651 | 67 ft | 16 kts | 233° |
| 2026-04-21 13:11 | 18.30140 | 109.39641 | 72 ft | 17 kts | 172° |
| 2026-04-21 13:11 | 18.30088 | 109.39665 | 67 ft | 0 kts | 90° |
| 2026-04-21 13:12 | 18.30090 | 109.39685 | 68 ft | 18 kts | 84° |
| 2026-04-21 13:12 | 18.30139 | 109.40069 | 77 ft | 85 kts | 81° |
| 2026-04-21 13:12 | 18.30237 | 109.40883 | 79 ft | 136 kts | 82° |
| 2026-04-21 13:13 | 18.30379 | 109.41999 | 219 ft | 165 kts | 84° |
| 2026-04-21 13:13 | 18.30524 | 109.43233 | 716 ft | 173 kts | 86° |
| 2026-04-21 13:13 | 18.30716 | 109.44482 | 1368 ft | 172 kts | 84° |
| 2026-04-21 13:13 | 18.30903 | 109.45727 | 1958 ft | 177 kts | 86° |
| 2026-04-21 13:14 | 18.31085 | 109.47089 | 2252 ft | 200 kts | 86° |
| 2026-04-21 13:14 | 18.31284 | 109.48631 | 2584 ft | 225 kts | 86° |
| 2026-04-21 13:14 | 18.31517 | 109.50328 | 3165 ft | 241 kts | 81° |
| 2026-04-21 13:14 | 18.32295 | 109.51925 | 3849 ft | 256 kts | 47° |
| 2026-04-21 13:15 | 18.33749 | 109.53045 | 4592 ft | 262 kts | 30° |
| 2026-04-21 13:15 | 18.35393 | 109.53902 | 5308 ft | 266 kts | 25° |
| 2026-04-21 13:15 | 18.37092 | 109.54705 | 6008 ft | 269 kts | 25° |
| 2026-04-21 13:15 | 18.38800 | 109.55539 | 6732 ft | 272 kts | 26° |
| 2026-04-21 13:16 | 18.40500 | 109.56424 | 7455 ft | 274 kts | 27° |
| 2026-04-21 13:16 | 18.42199 | 109.57361 | 8157 ft | 277 kts | 28° |
| 2026-04-21 13:16 | 18.43893 | 109.58334 | 8913 ft | 278 kts | 28° |
| 2026-04-21 13:16 | 18.45584 | 109.59331 | 9657 ft | 280 kts | 28° |
| 2026-04-21 13:17 | 18.47289 | 109.60347 | 10314 ft | 282 kts | 28° |
| 2026-04-21 13:17 | 18.49006 | 109.61368 | 10976 ft | 284 kts | 25° |
| 2026-04-21 13:17 | 18.50850 | 109.62279 | 11229 ft | 304 kts | 23° |
| 2026-04-21 13:17 | 18.52850 | 109.63237 | 11372 ft | 327 kts | 23° |
| 2026-04-21 13:18 | 18.54986 | 109.64254 | 11491 ft | 347 kts | 23° |
| 2026-04-21 13:18 | 18.57248 | 109.65331 | 11641 ft | 365 kts | 23° |
| 2026-04-21 13:18 | 18.59585 | 109.66445 | 11825 ft | 380 kts | 23° |
| 2026-04-21 13:18 | 18.62029 | 109.67615 | 12077 ft | 392 kts | 23° |
| 2026-04-21 13:19 | 18.64549 | 109.68822 | 12323 ft | 403 kts | 23° |
| 2026-04-21 13:19 | 18.67137 | 109.70061 | 12564 ft | 414 kts | 23° |
| 2026-04-21 13:19 | 18.69786 | 109.71330 | 12682 ft | 421 kts | 23° |
| 2026-04-21 13:19 | 18.72459 | 109.72614 | 12717 ft | 423 kts | 22° |
| 2026-04-21 13:20 | 18.74270 | 109.73484 | 12711 ft | 423 kts | 23° |
| 2026-04-21 13:20 | 18.77820 | 109.75190 | 12712 ft | 423 kts | 22° |
| 2026-04-21 13:20 | 18.80503 | 109.76480 | 12721 ft | 424 kts | 22° |
| 2026-04-21 13:20 | 18.83185 | 109.77770 | 12704 ft | 423 kts | 22° |
| 2026-04-21 13:21 | 18.85888 | 109.78992 | 12697 ft | 423 kts | 19° |
| 2026-04-21 13:21 | 18.88616 | 109.80169 | 12696 ft | 424 kts | 21° |
| 2026-04-21 13:21 | 18.91305 | 109.81448 | 12698 ft | 424 kts | 23° |
| 2026-04-21 13:21 | 18.93970 | 109.82780 | 12703 ft | 424 kts | 24° |
| 2026-04-21 13:22 | 18.96630 | 109.84129 | 12692 ft | 424 kts | 24° |
| 2026-04-21 13:22 | 18.99294 | 109.85468 | 12694 ft | 424 kts | 23° |
| 2026-04-21 13:22 | 19.01964 | 109.86788 | 12689 ft | 424 kts | 23° |
| 2026-04-21 13:22 | 19.04642 | 109.88094 | 12698 ft | 424 kts | 23° |
| 2026-04-21 13:23 | 19.07328 | 109.89390 | 12709 ft | 424 kts | 22° |
| 2026-04-21 13:23 | 19.10012 | 109.90677 | 12692 ft | 424 kts | 22° |
| 2026-04-21 13:23 | 19.12701 | 109.91969 | 12693 ft | 424 kts | 22° |
| 2026-04-21 13:23 | 19.15386 | 109.93260 | 12694 ft | 424 kts | 22° |
| 2026-04-21 13:24 | 19.18069 | 109.94554 | 12695 ft | 424 kts | 23° |
| 2026-04-21 13:24 | 19.20756 | 109.95855 | 12691 ft | 424 kts | 23° |
| 2026-04-21 13:24 | 19.23439 | 109.97154 | 12680 ft | 424 kts | 23° |
| 2026-04-21 13:24 | 19.26124 | 109.98454 | 12684 ft | 424 kts | 23° |
| 2026-04-21 13:25 | 19.28809 | 109.99748 | 12677 ft | 424 kts | 22° |
| 2026-04-21 13:25 | 19.31498 | 110.01038 | 12682 ft | 424 kts | 22° |
| 2026-04-21 13:25 | 19.34200 | 110.02332 | 12688 ft | 424 kts | 22° |
| 2026-04-21 13:25 | 19.36843 | 110.03599 | 12691 ft | 424 kts | 22° |
| 2026-04-21 13:26 | 19.39541 | 110.04893 | 12678 ft | 424 kts | 22° |
| 2026-04-21 13:26 | 19.42227 | 110.06183 | 12678 ft | 424 kts | 22° |
| 2026-04-21 13:26 | 19.44916 | 110.07479 | 12676 ft | 424 kts | 22° |
| 2026-04-21 13:26 | 19.47601 | 110.08776 | 12670 ft | 424 kts | 22° |
| 2026-04-21 13:27 | 19.50267 | 110.10062 | 12256 ft | 418 kts | 22° |
| 2026-04-21 13:27 | 19.52883 | 110.11323 | 11946 ft | 404 kts | 22° |
| 2026-04-21 13:27 | 19.55385 | 110.12529 | 11819 ft | 385 kts | 22° |
| 2026-04-21 13:27 | 19.57771 | 110.13679 | 11688 ft | 369 kts | 22° |
| 2026-04-21 13:28 | 19.60061 | 110.14783 | 11567 ft | 354 kts | 22° |
| 2026-04-21 13:28 | 19.62262 | 110.15848 | 11447 ft | 342 kts | 23° |
| 2026-04-21 13:28 | 19.64390 | 110.16878 | 11334 ft | 331 kts | 22° |
| 2026-04-21 13:28 | 19.66452 | 110.17877 | 11207 ft | 321 kts | 22° |
| 2026-04-21 13:29 | 19.68457 | 110.18847 | 11035 ft | 314 kts | 22° |
| 2026-04-21 13:29 | 19.70430 | 110.19798 | 10717 ft | 309 kts | 22° |
| 2026-04-21 13:29 | 19.72470 | 110.20541 | 10035 ft | 307 kts | 4° |
| 2026-04-21 13:29 | 19.74564 | 110.20499 | 9522 ft | 299 kts | 351° |
| 2026-04-21 13:30 | 19.76603 | 110.20155 | 8926 ft | 294 kts | 339° |
| 2026-04-21 13:30 | 19.78338 | 110.19108 | 8344 ft | 284 kts | 311° |
| 2026-04-21 13:30 | 19.79332 | 110.17423 | 8173 ft | 259 kts | 282° |
| 2026-04-21 13:30 | 19.79567 | 110.15599 | 7776 ft | 250 kts | 270° |
| 2026-04-21 13:31 | 19.79597 | 110.13700 | 7136 ft | 266 kts | 267° |
| 2026-04-21 13:31 | 19.79806 | 110.11711 | 6948 ft | 277 kts | 287° |
| 2026-04-21 13:31 | 19.80409 | 110.10476 | 6885 ft | 282 kts | 306° |
| 2026-04-21 13:31 | 19.81878 | 110.09190 | 6888 ft | 268 kts | 334° |
| 2026-04-21 13:32 | 19.83621 | 110.08769 | 6885 ft | 249 kts | 354° |
| 2026-04-21 13:32 | 19.85308 | 110.08692 | 6887 ft | 240 kts | 357° |
| 2026-04-21 13:32 | 19.86972 | 110.08658 | 6890 ft | 239 kts | 357° |
| 2026-04-21 13:32 | 19.88614 | 110.08631 | 6892 ft | 239 kts | 357° |
| 2026-04-21 13:33 | 19.90275 | 110.08605 | 6890 ft | 238 kts | 357° |
| 2026-04-21 13:33 | 19.91933 | 110.08583 | 6890 ft | 238 kts | 357° |
| 2026-04-21 13:33 | 19.93585 | 110.08563 | 6701 ft | 237 kts | 358° |
| 2026-04-21 13:33 | 19.95212 | 110.08758 | 6400 ft | 236 kts | 21° |
| 2026-04-21 13:34 | 19.96517 | 110.09769 | 6052 ft | 234 kts | 51° |
| 2026-04-21 13:34 | 19.97190 | 110.11421 | 5294 ft | 253 kts | 88° |
| 2026-04-21 13:34 | 19.96937 | 110.13198 | 5161 ft | 238 kts | 113° |
| 2026-04-21 13:34 | 19.96319 | 110.14795 | 5033 ft | 228 kts | 117° |
| 2026-04-21 13:35 | 19.95679 | 110.16309 | 4834 ft | 223 kts | 117° |
| 2026-04-21 13:35 | 19.95009 | 110.17869 | 4165 ft | 240 kts | 117° |
| 2026-04-21 13:35 | 19.94300 | 110.19517 | 3474 ft | 249 kts | 118° |
| 2026-04-21 13:35 | 19.93602 | 110.21201 | 2985 ft | 248 kts | 112° |
| 2026-04-21 13:36 | 19.93385 | 110.22953 | 2968 ft | 230 kts | 93° |
| 2026-04-21 13:36 | 19.93397 | 110.24599 | 2996 ft | 220 kts | 94° |
| 2026-04-21 13:36 | 19.93405 | 110.26213 | 2981 ft | 217 kts | 93° |
| 2026-04-21 13:36 | 19.93412 | 110.27792 | 2908 ft | 208 kts | 93° |
| 2026-04-21 13:37 | 19.93419 | 110.29284 | 2679 ft | 196 kts | 94° |
| 2026-04-21 13:37 | 19.93425 | 110.30689 | 2446 ft | 185 kts | 95° |
| 2026-04-21 13:37 | 19.93431 | 110.32005 | 2247 ft | 169 kts | 96° |
| 2026-04-21 13:37 | 19.93437 | 110.33201 | 2024 ft | 156 kts | 97° |
| 2026-04-21 13:38 | 19.93440 | 110.34329 | 1818 ft | 151 kts | 98° |
| 2026-04-21 13:38 | 19.93443 | 110.35438 | 1634 ft | 148 kts | 99° |
| 2026-04-21 13:38 | 19.93446 | 110.36526 | 1446 ft | 147 kts | 99° |
| 2026-04-21 13:38 | 19.93450 | 110.37606 | 1255 ft | 146 kts | 98° |
| 2026-04-21 13:39 | 19.93457 | 110.39692 | 898 ft | 145 kts | 96° |
| 2026-04-21 13:39 | 19.93461 | 110.40898 | 708 ft | 145 kts | 95° |
| 2026-04-21 13:39 | 19.93464 | 110.41970 | 529 ft | 145 kts | 92° |
| 2026-04-21 13:40 | 19.93468 | 110.43043 | 347 ft | 145 kts | 94° |
| 2026-04-21 13:40 | 19.93472 | 110.44100 | 155 ft | 145 kts | 91° |
| 2026-04-21 13:40 | 19.93479 | 110.45128 | 81 ft | 125 kts | 91° |
| 2026-04-21 13:40 | 19.93474 | 110.45870 | 81 ft | 76 kts | 89° |
| 2026-04-21 13:41 | 19.93480 | 110.46272 | 77 ft | 44 kts | 90° |
| 2026-04-21 13:41 | 19.93507 | 110.46526 | 68 ft | 15 kts | 57° |
| 2026-04-21 13:41 | 19.93572 | 110.46631 | 76 ft | 18 kts | 60° |
| 2026-04-21 13:41 | 19.93676 | 110.46667 | 75 ft | 18 kts | 1° |
| 2026-04-21 13:42 | 19.93737 | 110.46588 | 70 ft | 17 kts | 268° |
| 2026-04-21 13:42 | 19.93737 | 110.46456 | 74 ft | 19 kts | 268° |
| 2026-04-21 13:42 | 19.93737 | 110.46316 | 71 ft | 15 kts | 269° |
| 2026-04-21 13:42 | 19.93737 | 110.46197 | 74 ft | 17 kts | 271° |
| 2026-04-21 13:43 | 19.93736 | 110.46064 | 74 ft | 19 kts | 269° |
| 2026-04-21 13:43 | 19.93755 | 110.45971 | 76 ft | 9 kts | 336° |
| 2026-04-21 13:43 | 19.93827 | 110.45974 | 73 ft | 12 kts | 1° |
| 2026-04-21 13:43 | 19.93917 | 110.45974 | 68 ft | 14 kts | 7° |
| 2026-04-21 13:44 | 19.93972 | 110.46014 | 73 ft | 4 kts | 37° |
| 2026-04-21 13:44 | 19.93981 | 110.46021 | 74 ft | 2 kts | 37° |
| 2026-04-21 13:44 | 19.93980 | 110.46020 | 74 ft | 2 kts | 38° |